.
WxDataArchive / Data Records for 2010-10-30
2010-10-29 October 2010 2010-10-31

Data Records for Saturday, 30 October 2010

Time	Temp	Chill	HIndex	Humid	Dewpt	 Wind 	HiWind	WindDir	Rain 	Barom 
-----	----	-----	------	-----	-----	------	------	-------	-----	----- 
00:00	37.0	37.0	37.0	69	27.8	0	1	248	0.00	30.180 
00:05	37.0	37.0	37.0	69	27.8	0	0	---	0.00	30.180 
00:10	36.9	36.9	36.9	69	27.7	0	0	---	0.00	30.180 
00:15	36.8	36.8	36.8	69	27.6	0	0	---	0.00	30.174 
00:20	36.5	36.5	36.5	70	27.7	0	0	---	0.00	30.174 
00:25	36.5	36.5	36.5	70	27.7	0	0	---	0.00	30.174 
00:30	36.5	36.5	36.5	70	27.7	0	0	---	0.00	30.165 
00:35	36.5	36.5	36.5	70	27.7	0	0	---	0.00	30.165 
00:40	36.6	36.6	36.6	70	27.8	0	1	248	0.00	30.165 
00:45	36.8	36.8	36.8	70	27.9	0	1	248	0.00	30.160 
00:50	36.8	36.8	36.8	69	27.6	0	0	---	0.00	30.160 
00:55	36.9	36.9	36.9	69	27.7	0	3	248	0.00	30.160 
01:00	36.9	36.9	36.9	69	27.7	0	0	---	0.00	30.151 
01:05	36.9	36.9	36.9	69	27.7	0	0	---	0.00	30.151 
01:10	36.9	36.9	36.9	69	27.7	0	1	248	0.00	30.151 
01:15	36.9	36.9	36.9	69	27.7	0	1	248	0.00	30.147 
01:20	36.9	36.9	36.9	69	27.7	0	0	---	0.00	30.147 
01:25	37.0	37.0	37.0	68	27.4	0	1	248	0.00	30.147 
01:30	37.2	37.2	37.2	68	27.6	0	2	248	0.00	30.147 
01:35	37.2	37.2	37.2	67	27.3	0	1	248	0.00	30.147 
01:40	37.2	37.2	37.2	67	27.3	0	0	---	0.00	30.147 
01:45	37.2	37.2	37.2	67	27.3	0	0	---	0.00	30.145 
01:50	37.0	37.0	37.0	67	27.1	0	1	248	0.00	30.145 
01:55	37.0	37.0	37.0	67	27.1	0	0	---	0.00	30.145 
02:00	37.0	37.0	37.0	67	27.1	0	0	---	0.00	30.146 
02:05	36.9	36.9	36.9	67	27.0	0	1	248	0.00	30.146 
02:10	36.9	36.9	36.9	67	27.0	0	1	248	0.00	30.146 
02:15	36.9	36.9	36.9	67	27.0	0	2	248	0.00	30.138 
02:20	36.9	36.9	36.9	66	26.6	0	1	248	0.00	30.138 
02:25	36.9	36.9	36.9	66	26.6	0	1	248	0.00	30.138 
02:30	37.0	37.0	37.0	66	26.7	0	1	248	0.00	30.130 
02:35	37.0	37.0	37.0	66	26.7	0	2	248	0.00	30.130 
02:40	37.2	37.2	37.2	65	26.5	0	2	248	0.00	30.130 
02:45	37.2	37.2	37.2	65	26.5	0	2	248	0.00	30.129 
02:50	37.3	37.3	37.3	65	26.6	0	3	248	0.00	30.129 
02:55	37.3	37.3	37.3	65	26.6	0	1	248	0.00	30.129 
03:00	37.5	37.5	37.5	64	26.4	0	1	248	0.00	30.126 
03:05	37.5	37.5	37.5	64	26.4	0	1	248	0.00	30.126 
03:10	37.3	37.3	37.3	64	26.3	0	2	248	0.00	30.126 
03:15	37.3	37.3	37.3	64	26.3	0	2	248	0.00	30.116 
03:20	37.3	37.3	37.3	64	26.3	0	1	248	0.00	30.116 
03:25	37.2	37.2	37.2	64	26.2	0	2	248	0.00	30.116 
03:30	37.2	37.2	37.2	65	26.5	0	2	248	0.00	30.119 
03:35	37.2	37.2	37.2	64	26.2	0	2	248	0.00	30.119 
03:40	37.2	37.2	37.2	65	26.5	0	3	248	0.00	30.119 
03:45	37.2	37.2	37.2	65	26.5	0	2	248	0.00	30.114 
03:50	37.2	37.2	37.2	64	26.2	0	4	248	0.00	30.114 
03:55	37.2	37.2	37.2	64	26.2	0	4	248	0.00	30.114 
04:00	37.3	37.3	37.3	64	26.3	0	3	248	0.00	30.104 
04:05	37.3	37.3	37.3	64	26.3	0	1	248	0.00	30.104 
04:10	37.3	37.3	37.3	64	26.3	0	2	248	0.00	30.104 
04:15	37.3	37.3	37.3	64	26.3	0	1	248	0.00	30.109 
04:20	37.3	37.3	37.3	64	26.3	0	3	248	0.00	30.109 
04:25	37.3	37.3	37.3	63	25.9	0	2	248	0.00	30.109 
04:30	37.3	37.3	37.3	63	25.9	0	2	248	0.00	30.103 
04:35	37.5	37.5	37.5	63	26.1	0	3	248	0.00	30.103 
04:40	37.3	37.3	37.3	63	25.9	0	2	248	0.00	30.103 
04:45	37.2	37.2	37.2	64	26.2	0	1	248	0.00	30.095 
04:50	37.0	37.0	37.0	64	26.0	0	0	---	0.00	30.095 
04:55	36.9	36.9	36.9	65	26.3	0	1	248	0.00	30.095 
05:00	36.6	36.6	36.6	65	26.0	0	1	248	0.00	30.090 
05:05	36.3	36.3	36.3	66	26.0	0	2	248	0.00	30.090 
05:10	36.3	36.3	36.3	66	26.0	0	3	248	0.00	30.090 
05:15	36.5	36.5	36.5	66	26.2	0	3	248	0.00	30.084 
05:20	36.8	36.8	36.8	65	26.2	0	3	248	0.00	30.084 
05:25	37.0	37.0	37.0	65	26.3	0	3	248	0.00	30.084 
05:30	37.3	37.3	37.3	64	26.3	1	4	248	0.00	30.087 
05:35	37.5	37.5	37.5	64	26.4	1	6	248	0.00	30.087 
05:40	37.6	37.6	37.6	63	26.2	1	2	248	0.00	30.087 
05:45	37.6	37.6	37.6	63	26.2	0	1	248	0.00	30.081 
05:50	37.5	37.5	37.5	63	26.1	0	3	248	0.00	30.081 
05:55	37.3	37.3	37.3	64	26.3	0	4	248	0.00	30.081 
06:00	37.3	37.3	37.3	64	26.3	0	3	248	0.00	30.082 
06:05	37.2	37.2	37.2	64	26.2	0	2	248	0.00	30.082 
06:10	37.2	37.2	37.2	64	26.2	0	2	248	0.00	30.082 
06:15	37.2	37.2	37.2	64	26.2	1	5	248	0.00	30.077 
06:20	37.0	37.0	37.0	65	26.3	0	3	248	0.00	30.077 
06:25	37.0	37.0	37.0	65	26.3	0	4	248	0.00	30.077 
06:30	37.0	37.0	37.0	65	26.3	1	5	225	0.00	30.068 
06:35	37.0	37.0	37.0	65	26.3	1	3	248	0.00	30.068 
06:40	36.9	36.9	36.9	65	26.3	0	3	248	0.00	30.068 
06:45	36.9	36.9	36.9	65	26.3	1	3	248	0.00	30.057 
06:50	36.9	36.9	36.9	65	26.3	0	3	248	0.00	30.057 
06:55	36.8	36.8	36.8	65	26.2	0	3	248	0.00	30.057 
07:00	36.8	36.8	36.8	65	26.2	0	1	248	0.00	30.058 
07:05	36.6	36.6	36.6	65	26.0	0	2	248	0.00	30.058 
07:10	36.6	36.6	36.6	65	26.0	0	1	248	0.00	30.058 
07:15	36.5	36.5	36.5	65	25.9	0	2	248	0.00	30.054 
07:20	36.5	36.5	36.5	65	25.9	0	2	248	0.00	30.054 
07:25	36.3	36.3	36.3	66	26.0	0	1	248	0.00	30.054 
07:30	36.2	36.2	36.2	66	26.0	0	0	---	0.00	30.050 
07:35	36.2	36.2	36.2	66	26.0	0	3	248	0.00	30.050 
07:40	36.0	36.0	36.0	66	25.8	0	1	248	0.00	30.050 
07:45	36.0	36.0	36.0	66	25.8	0	2	248	0.00	30.041 
07:50	36.2	36.2	36.2	66	26.0	0	3	248	0.00	30.041 
07:55	36.2	36.2	36.2	66	26.0	0	2	248	0.00	30.041 
08:00	36.5	36.5	36.5	65	25.9	1	3	248	0.00	30.045 
08:05	36.6	36.6	36.6	65	26.0	1	4	248	0.00	30.045 
08:10	36.9	36.9	36.9	64	25.9	1	4	225	0.00	30.045 
08:15	37.0	37.0	37.0	64	26.0	0	3	248	0.00	30.042 
08:20	37.2	37.2	37.2	63	25.8	1	3	248	0.00	30.042 
08:25	37.3	37.3	37.3	63	25.9	1	4	248	0.00	30.042 
08:30	37.5	37.5	37.5	63	26.1	1	5	248	0.00	30.039 
08:35	37.6	37.6	37.6	62	25.8	1	5	248	0.00	30.039 
08:40	37.8	37.8	37.8	62	26.0	1	6	225	0.00	30.039 
08:45	37.9	37.9	37.9	62	26.1	1	5	270	0.00	30.018 
08:50	37.9	37.9	37.9	62	26.1	1	6	248	0.00	30.018 
08:55	38.2	38.2	38.2	62	26.3	2	5	248	0.00	30.018 
09:00	38.5	38.5	38.5	62	26.6	2	4	248	0.00	30.009 
09:05	38.8	38.8	38.8	61	26.5	2	7	248	0.00	30.009 
09:10	39.1	39.1	39.1	60	26.4	1	5	248	0.00	30.009 
09:15	39.3	39.3	39.3	60	26.6	1	5	248	0.00	30.009 
09:20	39.6	39.6	39.6	60	26.9	1	6	270	0.00	30.009 
09:25	39.8	39.8	39.8	59	26.7	1	4	248	0.00	30.009 
09:30	40.1	40.1	40.1	58	26.5	1	5	248	0.00	30.008 
09:35	40.3	40.3	40.3	58	26.7	2	5	270	0.00	30.008 
09:40	40.6	40.6	40.6	58	27.0	2	5	248	0.00	30.008 
09:45	40.9	40.9	40.9	58	27.3	1	4	248	0.00	29.996 
09:50	41.1	41.1	41.1	58	27.5	1	5	248	0.00	29.996 
09:55	41.3	41.3	41.3	57	27.2	1	6	270	0.00	29.996 
10:00	41.6	41.6	41.6	57	27.5	2	5	248	0.00	30.000 
10:05	41.9	41.9	41.9	57	27.8	1	5	225	0.00	30.000 
10:10	42.2	42.2	42.2	56	27.6	1	4	248	0.00	30.000 
10:15	42.5	42.5	42.5	56	27.9	2	5	248	0.00	29.994 
10:20	43.1	43.1	43.1	55	28.0	2	4	248	0.00	29.994 
10:25	43.5	43.5	43.5	54	28.0	2	6	248	0.00	29.994 
10:30	43.9	43.9	43.9	53	27.9	3	10	248	0.00	29.988 
10:35	44.3	44.3	44.3	53	28.3	2	7	248	0.00	29.988 
10:40	44.8	44.8	44.8	51	27.8	3	7	248	0.00	29.988 
10:45	44.9	44.9	44.9	51	27.9	3	12	248	0.00	29.978 
10:50	45.2	45.2	45.2	51	28.2	1	7	248	0.00	29.978 
10:55	45.2	45.2	45.2	50	27.7	2	7	248	0.00	29.978 
11:00	45.7	45.7	45.7	51	28.6	2	7	248	0.00	29.958 
11:05	46.2	44.5	46.2	49	28.1	4	10	248	0.00	29.958 
11:10	46.7	46.7	46.7	49	28.6	2	7	270	0.00	29.958 
11:15	47.6	47.6	47.6	47	28.4	3	10	248	0.00	29.949 
11:20	48.2	48.2	48.2	46	28.4	3	9	248	0.00	29.949 
11:25	48.9	48.9	48.9	45	28.5	3	6	248	0.00	29.949 
11:30	49.6	49.6	49.6	43	28.0	2	11	248	0.00	29.941 
11:35	50.4	50.4	50.4	40	27.0	3	9	248	0.00	29.941 
11:40	50.7	50.7	50.7	38	26.0	4	10	248	0.00	29.941 
11:45	51.0	51.0	51.0	38	26.3	4	10	225	0.00	29.928 
11:50	51.3	51.3	51.3	37	25.9	3	11	248	0.00	29.928 
11:55	51.6	51.6	51.6	36	25.5	3	9	248	0.00	29.928 
12:00	52.0	52.0	52.0	34	24.5	5	11	248	0.00	29.920 
12:05	52.3	52.3	52.3	35	25.5	2	7	225	0.00	29.920 
12:10	52.9	52.9	52.9	33	24.6	2	6	248	0.00	29.920 
12:15	53.1	53.1	53.1	34	25.5	2	8	248	0.00	29.912 
12:20	53.3	53.3	53.3	32	24.2	3	6	248	0.00	29.912 
12:25	53.8	53.8	53.8	32	24.6	3	6	248	0.00	29.912 
12:30	53.9	53.9	53.9	32	24.7	2	7	225	0.00	29.902 
12:35	54.2	54.2	54.2	32	25.0	3	6	248	0.00	29.902 
12:40	54.5	54.5	54.5	32	25.3	3	7	248	0.00	29.902 
12:45	54.7	54.7	54.7	32	25.4	3	7	248	0.00	29.887 
12:50	54.8	54.8	54.8	33	26.3	3	7	248	0.00	29.887 
12:55	55.1	55.1	55.1	31	25.0	4	11	248	0.00	29.887 
13:00	55.3	55.3	55.3	31	25.2	3	7	248	0.00	29.861 
13:05	55.6	55.6	55.6	30	24.7	4	12	248	0.00	29.861 
13:10	55.9	55.9	55.9	30	24.9	3	10	248	0.00	29.861 
13:15	56.0	56.0	56.0	29	24.2	5	10	248	0.00	29.851 
13:20	56.3	56.3	56.3	29	24.5	3	9	248	0.00	29.851 
13:25	56.6	56.6	56.6	29	24.7	3	7	248	0.00	29.851 
13:30	57.0	57.0	57.0	27	23.4	4	13	248	0.00	29.841 
13:35	57.6	57.6	57.6	27	23.9	4	10	248	0.00	29.841 
13:40	58.0	58.0	58.0	27	24.2	4	7	225	0.00	29.841 
13:45	58.1	58.1	58.1	27	24.3	6	13	248	0.00	29.829 
13:50	58.4	58.4	58.4	27	24.6	4	9	248	0.00	29.829 
13:55	58.6	58.6	58.6	26	23.8	5	13	225	0.00	29.829 
14:00	59.0	59.0	59.0	27	25.1	3	9	248	0.00	29.816 
14:05	59.2	59.2	59.2	27	25.2	4	18	248	0.00	29.816 
14:10	59.3	59.3	59.3	26	24.4	4	11	248	0.00	29.816 
14:15	59.6	59.6	59.6	25	23.7	4	12	270	0.00	29.797 
14:20	59.9	59.9	59.9	26	24.9	4	12	248	0.00	29.797 
14:25	60.1	60.1	60.1	25	24.2	3	10	248	0.00	29.797 
14:30	60.2	60.2	60.2	25	24.3	4	10	248	0.00	29.786 
14:35	60.5	60.5	60.5	25	24.5	4	11	225	0.00	29.786 
14:40	60.7	60.7	60.7	25	24.7	5	11	248	0.00	29.786 
14:45	61.0	61.0	61.0	25	24.9	4	11	248	0.00	29.777 
14:50	61.3	61.3	61.3	25	25.2	4	12	248	0.00	29.777 
14:55	61.8	61.8	61.8	25	25.6	3	9	248	0.00	29.777 
15:00	62.1	62.1	62.1	24	24.9	3	10	248	0.00	29.767 
15:05	62.4	62.4	62.4	24	25.1	3	7	248	0.00	29.767 
15:10	62.6	62.6	62.6	24	25.3	3	7	225	0.00	29.767 
15:15	62.7	62.7	62.7	23	24.4	5	11	248	0.00	29.757 
15:20	62.6	62.6	62.6	23	24.3	6	14	248	0.00	29.757 
15:25	62.7	62.7	62.7	24	25.4	4	10	248	0.00	29.757 
15:30	63.2	63.2	63.2	23	24.8	5	11	248	0.00	29.753 
15:35	63.5	63.5	63.5	24	26.1	4	10	248	0.00	29.753 
15:40	63.9	63.9	63.9	23	25.4	5	10	248	0.00	29.753 
15:45	63.9	63.9	63.9	23	25.4	5	12	270	0.00	29.744 
15:50	63.9	63.9	63.9	23	25.4	4	10	248	0.00	29.744 
15:55	63.7	63.7	63.7	24	26.2	5	14	248	0.00	29.744 
16:00	64.0	64.0	64.0	23	25.5	4	12	248	0.00	29.739 
16:05	64.0	64.0	64.0	24	26.5	5	13	270	0.00	29.739 
16:10	64.0	64.0	64.0	23	25.5	5	14	248	0.00	29.739 
16:15	63.9	63.9	63.9	24	26.4	5	11	248	0.00	29.739 
16:20	63.5	63.5	63.5	24	26.1	5	11	270	0.00	29.739 
16:25	63.2	63.2	63.2	25	26.8	4	10	248	0.00	29.739 
16:30	62.7	62.7	62.7	25	26.4	5	11	270	0.00	29.755 
16:35	62.4	62.4	62.4	25	26.1	5	16	248	0.00	29.755 
16:40	62.3	62.3	62.3	25	26.0	3	9	248	0.00	29.755 
16:45	62.0	62.0	62.0	26	26.7	2	7	270	0.00	29.758 
16:50	61.8	61.8	61.8	26	26.6	3	9	248	0.00	29.758 
16:55	61.6	61.6	61.6	26	26.4	6	13	270	0.00	29.758 
17:00	61.5	61.5	61.5	26	26.3	6	15	270	0.00	29.766 
17:05	61.2	61.2	61.2	27	27.0	7	16	248	0.00	29.766 
17:10	61.0	61.0	61.0	27	26.8	5	13	248	0.00	29.766 
17:15	60.9	60.9	60.9	27	26.7	3	12	248	0.00	29.772 
17:20	60.7	60.7	60.7	28	27.4	3	7	248	0.00	29.772 
17:25	60.7	60.7	60.7	28	27.4	5	10	270	0.00	29.772 
17:30	60.5	60.5	60.5	27	26.4	3	8	270	0.00	29.775 
17:35	60.4	60.4	60.4	27	26.3	4	7	270	0.00	29.775 
17:40	60.4	60.4	60.4	28	27.1	4	9	270	0.00	29.775 
17:45	60.2	60.2	60.2	28	27.0	4	8	270	0.00	29.775 
17:50	60.1	60.1	60.1	29	27.7	3	10	270	0.00	29.775 
17:55	60.1	60.1	60.1	29	27.7	3	7	248	0.00	29.775 
18:00	59.9	59.9	59.9	29	27.6	3	6	248	0.00	29.776 
18:05	59.8	59.8	59.8	30	28.3	2	4	248	0.00	29.776 
18:10	59.8	59.8	59.8	29	27.5	4	9	270	0.00	29.776 
18:15	59.6	59.6	59.6	30	28.1	3	9	225	0.00	29.777 
18:20	59.5	59.5	59.5	30	28.0	3	7	248	0.00	29.777 
18:25	59.5	59.5	59.5	30	28.0	2	7	248	0.00	29.777 
18:30	59.3	59.3	59.3	30	27.9	2	5	248	0.00	29.780 
18:35	59.0	59.0	59.0	31	28.4	1	4	248	0.00	29.780 
18:40	58.9	58.9	58.9	31	28.3	3	6	248	0.00	29.780 
18:45	58.9	58.9	58.9	31	28.3	2	7	248	0.00	29.788 
18:50	58.7	58.7	58.7	31	28.1	3	7	248	0.00	29.788 
18:55	58.6	58.6	58.6	31	28.1	2	7	248	0.00	29.788 
19:00	58.4	58.4	58.4	32	28.7	1	3	248	0.00	29.788 
19:05	58.3	58.3	58.3	32	28.6	1	5	248	0.00	29.788 
19:10	58.1	58.1	58.1	32	28.4	2	5	248	0.00	29.788 
19:15	58.1	58.1	58.1	33	29.2	2	5	248	0.00	29.791 
19:20	58.0	58.0	58.0	33	29.1	1	5	248	0.00	29.791 
19:25	57.8	57.8	57.8	33	28.9	2	5	248	0.00	29.791 
19:30	57.6	57.6	57.6	34	29.4	2	5	248	0.00	29.796 
19:35	57.5	57.5	57.5	34	29.4	1	5	248	0.00	29.796 
19:40	57.3	57.3	57.3	34	29.2	1	4	270	0.00	29.796 
19:45	57.2	57.2	57.2	35	29.8	1	3	248	0.00	29.804 
19:50	57.0	57.0	57.0	35	29.6	2	7	248	0.00	29.804 
19:55	57.0	57.0	57.0	35	29.6	2	5	270	0.00	29.804 
20:00	57.0	57.0	57.0	36	30.3	1	6	248	0.00	29.809 
20:05	56.9	56.9	56.9	36	30.2	2	5	248	0.00	29.809 
20:10	56.9	56.9	56.9	37	30.9	2	4	248	0.00	29.809 
20:15	56.6	56.6	56.6	37	30.6	1	3	248	0.00	29.815 
20:20	56.5	56.5	56.5	38	31.2	1	4	248	0.00	29.815 
20:25	56.2	56.2	56.2	38	30.9	1	4	248	0.00	29.815 
20:30	56.0	56.0	56.0	39	31.4	1	4	248	0.00	29.823 
20:35	55.9	55.9	55.9	39	31.3	1	3	248	0.00	29.823 
20:40	55.7	55.7	55.7	40	31.8	2	6	248	0.00	29.823 
20:45	55.7	55.7	55.7	40	31.8	2	4	248	0.00	29.823 
20:50	55.6	55.6	55.6	40	31.7	1	4	248	0.00	29.823 
20:55	55.4	55.4	55.4	41	32.1	2	4	248	0.00	29.823 
21:00	55.3	55.3	55.3	41	32.0	1	3	248	0.00	29.824 
21:05	55.1	55.1	55.1	42	32.4	2	7	248	0.00	29.824 
21:10	55.1	55.1	55.1	42	32.4	1	3	248	0.00	29.824 
21:15	55.0	55.0	55.0	43	32.9	1	3	248	0.00	29.823 
21:20	54.8	54.8	54.8	43	32.7	1	2	248	0.00	29.823 
21:25	54.5	54.5	54.5	43	32.5	1	4	248	0.00	29.823 
21:30	54.4	54.4	54.4	44	32.9	1	4	248	0.00	29.821 
21:35	54.2	54.2	54.2	44	32.8	1	5	248	0.00	29.821 
21:40	54.4	54.4	54.4	44	32.9	1	3	248	0.00	29.821 
21:45	54.2	54.2	54.2	45	33.3	1	2	248	0.00	29.826 
21:50	54.1	54.1	54.1	45	33.2	1	3	248	0.00	29.826 
21:55	54.1	54.1	54.1	45	33.2	1	3	248	0.00	29.826 
22:00	53.9	53.9	53.9	46	33.6	1	3	248	0.00	29.828 
22:05	53.6	53.6	53.6	46	33.3	1	3	248	0.00	29.828 
22:10	53.3	53.3	53.3	46	33.1	1	3	248	0.00	29.828 
22:15	53.3	53.3	53.3	47	33.6	1	3	248	0.00	29.832 
22:20	53.2	53.2	53.2	47	33.5	1	3	248	0.00	29.832 
22:25	53.1	53.1	53.1	48	33.9	1	3	248	0.00	29.832 
22:30	52.9	52.9	52.9	48	33.7	0	2	248	0.00	29.834 
22:35	52.8	52.8	52.8	48	33.7	0	3	248	0.00	29.834 
22:40	52.6	52.6	52.6	49	34.0	0	2	248	0.00	29.834 
22:45	52.5	52.5	52.5	49	33.9	0	3	248	0.00	29.833 
22:50	52.3	52.3	52.3	49	33.7	0	2	248	0.00	29.833 
22:55	52.2	52.2	52.2	50	34.1	0	3	248	0.00	29.833 
23:00	52.0	52.0	52.0	50	33.9	0	3	248	0.00	29.836 
23:05	51.9	51.9	51.9	50	33.9	0	1	248	0.00	29.836 
23:10	51.7	51.7	51.7	51	34.2	1	4	248	0.00	29.836 
23:15	51.7	51.7	51.7	51	34.2	1	2	248	0.00	29.842 
23:20	51.4	51.4	51.4	51	33.9	0	1	248	0.00	29.842 
23:25	51.3	51.3	51.3	52	34.3	0	2	248	0.00	29.842 
23:30	51.1	51.1	51.1	52	34.1	0	2	292	0.00	29.853 
23:35	51.0	51.0	51.0	52	34.0	0	1	292	0.00	29.853 
23:40	50.8	50.8	50.8	53	34.3	0	1	292	0.00	29.853 
23:45	50.5	50.5	50.5	53	34.0	0	1	292	0.00	29.863 
23:50	50.1	50.1	50.1	54	34.1	0	1	292	0.00	29.863 
23:55	49.8	49.8	49.8	54	33.8	0	1	292	0.00	29.863 

CoCoRaHS
IN-AL-39
A2 Web Hosting
Creative Commons License
GoDaddy
search engine by freefind advanced

loaded 2018-11-16 00:21:13 • last modified 2010-11-18 10:43:29
Privacy PolicyDisclaimer
• wx.awcolley.com is powered by PmWiki v.2002016 •
• all content (unless otherwise noted) © 2018 A W Colley